sensor_id;sensor_type;location;lat;lon;timestamp;P1;durP1;ratioP1;P2;durP2;ratioP2
39738;SDS011;25422;48.286;8.484;2022-09-09T00:00:38;3.25;;;1.60;;
39738;SDS011;25422;48.286;8.484;2022-09-09T00:03:12;4.82;;;1.30;;
39738;SDS011;25422;48.286;8.484;2022-09-09T00:08:58;2.60;;;1.40;;
39738;SDS011;25422;48.286;8.484;2022-09-09T00:11:23;3.35;;;1.38;;
39738;SDS011;25422;48.286;8.484;2022-09-09T00:13:53;1.92;;;1.27;;
39738;SDS011;25422;48.286;8.484;2022-09-09T00:16:27;1.58;;;1.40;;
39738;SDS011;25422;48.286;8.484;2022-09-09T00:19:07;6.00;;;1.42;;
39738;SDS011;25422;48.286;8.484;2022-09-09T00:21:39;2.55;;;1.50;;
39738;SDS011;25422;48.286;8.484;2022-09-09T00:24:24;2.17;;;1.58;;
39738;SDS011;25422;48.286;8.484;2022-09-09T00:27:09;2.53;;;1.23;;
39738;SDS011;25422;48.286;8.484;2022-09-09T00:29:52;6.32;;;1.50;;
39738;SDS011;25422;48.286;8.484;2022-09-09T00:32:21;6.30;;;1.38;;
39738;SDS011;25422;48.286;8.484;2022-09-09T00:37:31;9.63;;;1.50;;
39738;SDS011;25422;48.286;8.484;2022-09-09T00:39:59;2.53;;;1.40;;
39738;SDS011;25422;48.286;8.484;2022-09-09T00:42:41;3.92;;;1.48;;
39738;SDS011;25422;48.286;8.484;2022-09-09T00:47:43;3.03;;;1.42;;
39738;SDS011;25422;48.286;8.484;2022-09-09T00:58:08;5.70;;;1.40;;
39738;SDS011;25422;48.286;8.484;2022-09-09T01:00:44;3.67;;;1.65;;
39738;SDS011;25422;48.286;8.484;2022-09-09T01:03:22;3.10;;;1.85;;
39738;SDS011;25422;48.286;8.484;2022-09-09T01:06:13;3.38;;;1.60;;
39738;SDS011;25422;48.286;8.484;2022-09-09T01:26:19;3.67;;;1.65;;
39738;SDS011;25422;48.286;8.484;2022-09-09T01:28:50;4.47;;;1.45;;
39738;SDS011;25422;48.286;8.484;2022-09-09T01:31:20;3.40;;;1.70;;
39738;SDS011;25422;48.286;8.484;2022-09-09T01:33:51;5.50;;;1.75;;
39738;SDS011;25422;48.286;8.484;2022-09-09T01:38:55;6.78;;;2.25;;
39738;SDS011;25422;48.286;8.484;2022-09-09T01:41:21;4.80;;;1.80;;
39738;SDS011;25422;48.286;8.484;2022-09-09T01:44:00;5.60;;;1.40;;
39738;SDS011;25422;48.286;8.484;2022-09-09T01:46:27;3.13;;;1.77;;
39738;SDS011;25422;48.286;8.484;2022-09-09T01:48:55;3.00;;;1.50;;
39738;SDS011;25422;48.286;8.484;2022-09-09T01:51:22;3.65;;;1.38;;
39738;SDS011;25422;48.286;8.484;2022-09-09T01:53:49;3.95;;;1.65;;
39738;SDS011;25422;48.286;8.484;2022-09-09T01:56:29;4.32;;;1.60;;
39738;SDS011;25422;48.286;8.484;2022-09-09T02:04:52;4.18;;;1.75;;
39738;SDS011;25422;48.286;8.484;2022-09-09T02:12:33;4.78;;;1.50;;
39738;SDS011;25422;48.286;8.484;2022-09-09T02:15:05;2.30;;;1.02;;
39738;SDS011;25422;48.286;8.484;2022-09-09T02:17:45;4.97;;;1.10;;
39738;SDS011;25422;48.286;8.484;2022-09-09T02:20:14;3.53;;;0.93;;
39738;SDS011;25422;48.286;8.484;2022-09-09T02:22:48;3.50;;;1.13;;
39738;SDS011;25422;48.286;8.484;2022-09-09T02:25:18;3.22;;;1.30;;
39738;SDS011;25422;48.286;8.484;2022-09-09T02:27:47;3.40;;;0.80;;
39738;SDS011;25422;48.286;8.484;2022-09-09T02:30:15;4.38;;;1.15;;
39738;SDS011;25422;48.286;8.484;2022-09-09T02:32:48;5.10;;;1.10;;
39738;SDS011;25422;48.286;8.484;2022-09-09T02:35:19;4.88;;;1.48;;
39738;SDS011;25422;48.286;8.484;2022-09-09T02:37:50;2.42;;;0.98;;
39738;SDS011;25422;48.286;8.484;2022-09-09T02:40:18;3.97;;;1.30;;
39738;SDS011;25422;48.286;8.484;2022-09-09T02:42:50;2.53;;;0.93;;
39738;SDS011;25422;48.286;8.484;2022-09-09T02:45:18;1.27;;;0.75;;
39738;SDS011;25422;48.286;8.484;2022-09-09T02:47:55;3.90;;;1.13;;
39738;SDS011;25422;48.286;8.484;2022-09-09T02:50:34;3.58;;;1.10;;
39738;SDS011;25422;48.286;8.484;2022-09-09T02:53:09;3.85;;;1.05;;
39738;SDS011;25422;48.286;8.484;2022-09-09T02:55:43;1.48;;;1.00;;
39738;SDS011;25422;48.286;8.484;2022-09-09T02:58:16;1.33;;;0.70;;
39738;SDS011;25422;48.286;8.484;2022-09-09T03:00:49;4.35;;;0.90;;
39738;SDS011;25422;48.286;8.484;2022-09-09T03:03:18;1.33;;;0.85;;
39738;SDS011;25422;48.286;8.484;2022-09-09T03:05:45;2.80;;;1.13;;
39738;SDS011;25422;48.286;8.484;2022-09-09T03:08:11;5.07;;;1.10;;
39738;SDS011;25422;48.286;8.484;2022-09-09T03:10:38;2.55;;;1.00;;
39738;SDS011;25422;48.286;8.484;2022-09-09T03:13:04;5.50;;;1.08;;
39738;SDS011;25422;48.286;8.484;2022-09-09T03:15:34;1.90;;;0.90;;
39738;SDS011;25422;48.286;8.484;2022-09-09T03:17:59;1.98;;;0.90;;
39738;SDS011;25422;48.286;8.484;2022-09-09T03:20:26;2.35;;;0.90;;
39738;SDS011;25422;48.286;8.484;2022-09-09T03:22:53;2.80;;;1.17;;
39738;SDS011;25422;48.286;8.484;2022-09-09T03:25:20;3.50;;;1.08;;
39738;SDS011;25422;48.286;8.484;2022-09-09T03:27:46;4.03;;;1.27;;
39738;SDS011;25422;48.286;8.484;2022-09-09T03:30:12;3.63;;;1.30;;
39738;SDS011;25422;48.286;8.484;2022-09-09T03:32:39;7.20;;;1.15;;
39738;SDS011;25422;48.286;8.484;2022-09-09T03:35:06;1.48;;;1.10;;
39738;SDS011;25422;48.286;8.484;2022-09-09T03:37:32;2.28;;;1.48;;
39738;SDS011;25422;48.286;8.484;2022-09-09T03:39:57;2.90;;;1.42;;
39738;SDS011;25422;48.286;8.484;2022-09-09T03:42:23;2.88;;;1.45;;
39738;SDS011;25422;48.286;8.484;2022-09-09T03:44:51;2.00;;;1.63;;
39738;SDS011;25422;48.286;8.484;2022-09-09T03:47:19;1.88;;;1.25;;
39738;SDS011;25422;48.286;8.484;2022-09-09T03:49:48;7.78;;;1.67;;
39738;SDS011;25422;48.286;8.484;2022-09-09T03:52:13;4.95;;;1.85;;
39738;SDS011;25422;48.286;8.484;2022-09-09T03:54:40;3.25;;;1.77;;
39738;SDS011;25422;48.286;8.484;2022-09-09T03:57:08;6.30;;;1.90;;
39738;SDS011;25422;48.286;8.484;2022-09-09T03:59:36;4.72;;;2.08;;
39738;SDS011;25422;48.286;8.484;2022-09-09T04:02:03;2.65;;;2.00;;
39738;SDS011;25422;48.286;8.484;2022-09-09T04:04:29;5.13;;;2.38;;
39738;SDS011;25422;48.286;8.484;2022-09-09T04:06:55;5.50;;;2.30;;
39738;SDS011;25422;48.286;8.484;2022-09-09T04:09:22;3.85;;;2.00;;
39738;SDS011;25422;48.286;8.484;2022-09-09T04:11:50;10.13;;;2.30;;
39738;SDS011;25422;48.286;8.484;2022-09-09T04:14:15;4.43;;;2.20;;
39738;SDS011;25422;48.286;8.484;2022-09-09T04:16:41;6.60;;;2.50;;
39738;SDS011;25422;48.286;8.484;2022-09-09T04:19:11;2.90;;;1.92;;
39738;SDS011;25422;48.286;8.484;2022-09-09T04:24:06;6.10;;;2.47;;
39738;SDS011;25422;48.286;8.484;2022-09-09T04:26:33;6.90;;;2.63;;
39738;SDS011;25422;48.286;8.484;2022-09-09T04:28:59;4.82;;;2.58;;
39738;SDS011;25422;48.286;8.484;2022-09-09T04:31:25;5.25;;;1.90;;
39738;SDS011;25422;48.286;8.484;2022-09-09T04:33:54;2.95;;;2.28;;
39738;SDS011;25422;48.286;8.484;2022-09-09T04:36:20;5.38;;;2.42;;
39738;SDS011;25422;48.286;8.484;2022-09-09T04:38:48;7.47;;;2.72;;
39738;SDS011;25422;48.286;8.484;2022-09-09T04:41:14;4.35;;;2.53;;
39738;SDS011;25422;48.286;8.484;2022-09-09T04:43:43;6.18;;;2.47;;
39738;SDS011;25422;48.286;8.484;2022-09-09T04:46:09;6.72;;;2.80;;
39738;SDS011;25422;48.286;8.484;2022-09-09T04:48:34;6.35;;;2.63;;
39738;SDS011;25422;48.286;8.484;2022-09-09T04:51:03;3.13;;;2.60;;
39738;SDS011;25422;48.286;8.484;2022-09-09T04:53:31;4.30;;;2.42;;
39738;SDS011;25422;48.286;8.484;2022-09-09T04:56:06;7.00;;;2.92;;
39738;SDS011;25422;48.286;8.484;2022-09-09T04:58:41;6.97;;;3.00;;
39738;SDS011;25422;48.286;8.484;2022-09-09T05:01:18;6.10;;;2.75;;
39738;SDS011;25422;48.286;8.484;2022-09-09T05:03:45;5.85;;;2.88;;
39738;SDS011;25422;48.286;8.484;2022-09-09T05:06:16;4.50;;;2.40;;
39738;SDS011;25422;48.286;8.484;2022-09-09T05:08:43;6.43;;;2.70;;
39738;SDS011;25422;48.286;8.484;2022-09-09T05:13:48;13.82;;;8.40;;
39738;SDS011;25422;48.286;8.484;2022-09-09T05:16:16;7.70;;;4.03;;
39738;SDS011;25422;48.286;8.484;2022-09-09T05:18:43;8.02;;;2.92;;
39738;SDS011;25422;48.286;8.484;2022-09-09T05:21:10;6.72;;;2.70;;
39738;SDS011;25422;48.286;8.484;2022-09-09T05:23:36;10.32;;;4.35;;
39738;SDS011;25422;48.286;8.484;2022-09-09T05:26:03;6.30;;;3.33;;
39738;SDS011;25422;48.286;8.484;2022-09-09T05:28:29;5.25;;;2.83;;
39738;SDS011;25422;48.286;8.484;2022-09-09T05:31:05;4.00;;;2.10;;
39738;SDS011;25422;48.286;8.484;2022-09-09T05:33:34;7.00;;;2.30;;
39738;SDS011;25422;48.286;8.484;2022-09-09T05:36:02;9.60;;;3.20;;
39738;SDS011;25422;48.286;8.484;2022-09-09T05:38:30;7.60;;;2.40;;
39738;SDS011;25422;48.286;8.484;2022-09-09T05:40:58;6.82;;;2.47;;
39738;SDS011;25422;48.286;8.484;2022-09-09T05:43:24;4.68;;;2.03;;
39738;SDS011;25422;48.286;8.484;2022-09-09T05:46:01;6.18;;;2.08;;
39738;SDS011;25422;48.286;8.484;2022-09-09T05:48:32;5.18;;;2.10;;
39738;SDS011;25422;48.286;8.484;2022-09-09T05:50:59;5.07;;;2.10;;
39738;SDS011;25422;48.286;8.484;2022-09-09T05:53:26;8.18;;;2.75;;
39738;SDS011;25422;48.286;8.484;2022-09-09T05:56:02;4.40;;;2.72;;
39738;SDS011;25422;48.286;8.484;2022-09-09T05:58:31;4.50;;;2.80;;
39738;SDS011;25422;48.286;8.484;2022-09-09T06:01:09;6.00;;;2.78;;
39738;SDS011;25422;48.286;8.484;2022-09-09T06:03:39;10.82;;;2.72;;
39738;SDS011;25422;48.286;8.484;2022-09-09T06:06:07;5.30;;;3.20;;
39738;SDS011;25422;48.286;8.484;2022-09-09T06:08:34;6.05;;;3.20;;
39738;SDS011;25422;48.286;8.484;2022-09-09T06:11:09;8.55;;;2.47;;
39738;SDS011;25422;48.286;8.484;2022-09-09T06:13:37;6.10;;;2.30;;
39738;SDS011;25422;48.286;8.484;2022-09-09T06:16:16;3.83;;;2.10;;
39738;SDS011;25422;48.286;8.484;2022-09-09T06:18:43;4.23;;;2.30;;
39738;SDS011;25422;48.286;8.484;2022-09-09T06:23:45;5.63;;;2.50;;
39738;SDS011;25422;48.286;8.484;2022-09-09T06:28:38;2.88;;;2.08;;
39738;SDS011;25422;48.286;8.484;2022-09-09T06:31:05;6.40;;;2.92;;
39738;SDS011;25422;48.286;8.484;2022-09-09T06:33:34;5.22;;;2.22;;
39738;SDS011;25422;48.286;8.484;2022-09-09T06:36:01;5.57;;;2.25;;
39738;SDS011;25422;48.286;8.484;2022-09-09T06:38:29;5.65;;;2.38;;
39738;SDS011;25422;48.286;8.484;2022-09-09T06:40:56;5.35;;;2.20;;
39738;SDS011;25422;48.286;8.484;2022-09-09T06:43:23;7.93;;;2.50;;
39738;SDS011;25422;48.286;8.484;2022-09-09T06:45:54;6.38;;;1.90;;
39738;SDS011;25422;48.286;8.484;2022-09-09T06:48:21;5.75;;;2.05;;
39738;SDS011;25422;48.286;8.484;2022-09-09T06:50:46;5.55;;;1.90;;
39738;SDS011;25422;48.286;8.484;2022-09-09T06:53:15;3.45;;;1.50;;
39738;SDS011;25422;48.286;8.484;2022-09-09T06:55:42;3.50;;;1.30;;
39738;SDS011;25422;48.286;8.484;2022-09-09T06:58:10;3.63;;;1.38;;
39738;SDS011;25422;48.286;8.484;2022-09-09T07:00:36;4.60;;;1.40;;
39738;SDS011;25422;48.286;8.484;2022-09-09T07:03:04;2.95;;;1.48;;
39738;SDS011;25422;48.286;8.484;2022-09-09T07:05:31;4.82;;;1.40;;
39738;SDS011;25422;48.286;8.484;2022-09-09T07:07:56;8.52;;;2.00;;
39738;SDS011;25422;48.286;8.484;2022-09-09T07:10:22;4.07;;;1.60;;
39738;SDS011;25422;48.286;8.484;2022-09-09T07:12:51;3.60;;;1.45;;
39738;SDS011;25422;48.286;8.484;2022-09-09T07:15:18;4.03;;;1.70;;
39738;SDS011;25422;48.286;8.484;2022-09-09T07:17:44;5.20;;;1.50;;
39738;SDS011;25422;48.286;8.484;2022-09-09T07:20:10;3.88;;;1.40;;
39738;SDS011;25422;48.286;8.484;2022-09-09T07:22:37;5.90;;;1.80;;
39738;SDS011;25422;48.286;8.484;2022-09-09T07:25:03;5.72;;;1.70;;
39738;SDS011;25422;48.286;8.484;2022-09-09T07:27:29;4.00;;;1.55;;
39738;SDS011;25422;48.286;8.484;2022-09-09T07:29:55;6.95;;;1.67;;
39738;SDS011;25422;48.286;8.484;2022-09-09T07:32:21;7.15;;;1.85;;
39738;SDS011;25422;48.286;8.484;2022-09-09T07:34:46;6.15;;;1.60;;
39738;SDS011;25422;48.286;8.484;2022-09-09T07:37:12;3.85;;;1.40;;
39738;SDS011;25422;48.286;8.484;2022-09-09T07:39:41;3.90;;;1.70;;
39738;SDS011;25422;48.286;8.484;2022-09-09T07:42:07;5.57;;;1.50;;
39738;SDS011;25422;48.286;8.484;2022-09-09T07:44:35;4.00;;;1.75;;
39738;SDS011;25422;48.286;8.484;2022-09-09T07:47:09;4.28;;;1.45;;
39738;SDS011;25422;48.286;8.484;2022-09-09T07:49:39;5.63;;;1.70;;
39738;SDS011;25422;48.286;8.484;2022-09-09T07:52:06;3.25;;;1.50;;
39738;SDS011;25422;48.286;8.484;2022-09-09T07:54:32;4.50;;;1.75;;
39738;SDS011;25422;48.286;8.484;2022-09-09T07:56:59;3.35;;;1.52;;
39738;SDS011;25422;48.286;8.484;2022-09-09T07:59:27;4.03;;;1.80;;
39738;SDS011;25422;48.286;8.484;2022-09-09T08:01:56;3.20;;;1.40;;
39738;SDS011;25422;48.286;8.484;2022-09-09T08:04:26;4.82;;;1.80;;
39738;SDS011;25422;48.286;8.484;2022-09-09T08:06:58;2.28;;;1.42;;
39738;SDS011;25422;48.286;8.484;2022-09-09T08:09:26;4.10;;;1.38;;
39738;SDS011;25422;48.286;8.484;2022-09-09T08:11:58;3.20;;;1.30;;
39738;SDS011;25422;48.286;8.484;2022-09-09T08:14:24;2.85;;;1.30;;
39738;SDS011;25422;48.286;8.484;2022-09-09T08:16:50;3.40;;;1.23;;
39738;SDS011;25422;48.286;8.484;2022-09-09T08:19:19;2.78;;;1.20;;
39738;SDS011;25422;48.286;8.484;2022-09-09T08:21:45;5.50;;;1.20;;
39738;SDS011;25422;48.286;8.484;2022-09-09T08:24:12;5.50;;;1.33;;
39738;SDS011;25422;48.286;8.484;2022-09-09T08:26:44;2.75;;;1.23;;
39738;SDS011;25422;48.286;8.484;2022-09-09T08:29:12;6.63;;;1.00;;
39738;SDS011;25422;48.286;8.484;2022-09-09T08:31:40;2.25;;;0.90;;
39738;SDS011;25422;48.286;8.484;2022-09-09T08:34:07;2.65;;;0.90;;
39738;SDS011;25422;48.286;8.484;2022-09-09T08:36:42;4.63;;;1.02;;
39738;SDS011;25422;48.286;8.484;2022-09-09T08:39:11;4.55;;;1.10;;
39738;SDS011;25422;48.286;8.484;2022-09-09T08:53:01;3.40;;;0.73;;
39738;SDS011;25422;48.286;8.484;2022-09-09T08:58:05;2.88;;;0.73;;
39738;SDS011;25422;48.286;8.484;2022-09-09T09:00:42;3.30;;;0.88;;
39738;SDS011;25422;48.286;8.484;2022-09-09T09:09:07;3.65;;;0.75;;
39738;SDS011;25422;48.286;8.484;2022-09-09T09:11:46;4.60;;;0.70;;
39738;SDS011;25422;48.286;8.484;2022-09-09T09:14:17;3.33;;;0.63;;
39738;SDS011;25422;48.286;8.484;2022-09-09T09:16:50;3.35;;;0.93;;
39738;SDS011;25422;48.286;8.484;2022-09-09T09:19:20;3.15;;;0.70;;
39738;SDS011;25422;48.286;8.484;2022-09-09T09:21:59;5.70;;;0.77;;
39738;SDS011;25422;48.286;8.484;2022-09-09T09:24:37;4.72;;;0.70;;
39738;SDS011;25422;48.286;8.484;2022-09-09T09:27:12;1.63;;;0.63;;
39738;SDS011;25422;48.286;8.484;2022-09-09T09:29:42;4.32;;;0.70;;
39738;SDS011;25422;48.286;8.484;2022-09-09T09:32:13;2.47;;;0.65;;
39738;SDS011;25422;48.286;8.484;2022-09-09T09:34:48;4.13;;;0.80;;
39738;SDS011;25422;48.286;8.484;2022-09-09T09:37:33;3.80;;;0.80;;
39738;SDS011;25422;48.286;8.484;2022-09-09T09:40:07;1.70;;;0.50;;
39738;SDS011;25422;48.286;8.484;2022-09-09T09:42:38;2.35;;;0.47;;
39738;SDS011;25422;48.286;8.484;2022-09-09T09:45:25;2.13;;;0.60;;
39738;SDS011;25422;48.286;8.484;2022-09-09T09:47:59;2.78;;;0.70;;
39738;SDS011;25422;48.286;8.484;2022-09-09T09:50:46;1.45;;;0.47;;
39738;SDS011;25422;48.286;8.484;2022-09-09T09:53:22;2.83;;;0.70;;
39738;SDS011;25422;48.286;8.484;2022-09-09T09:55:55;2.55;;;0.70;;
39738;SDS011;25422;48.286;8.484;2022-09-09T09:58:23;1.75;;;0.70;;
39738;SDS011;25422;48.286;8.484;2022-09-09T10:00:50;3.03;;;0.77;;
39738;SDS011;25422;48.286;8.484;2022-09-09T10:03:30;5.13;;;0.55;;
39738;SDS011;25422;48.286;8.484;2022-09-09T10:06:00;3.40;;;0.85;;
39738;SDS011;25422;48.286;8.484;2022-09-09T10:08:26;3.35;;;0.60;;
39738;SDS011;25422;48.286;8.484;2022-09-09T10:13:33;3.42;;;0.70;;
39738;SDS011;25422;48.286;8.484;2022-09-09T10:16:34;2.38;;;0.50;;
39738;SDS011;25422;48.286;8.484;2022-09-09T10:19:30;2.45;;;0.57;;
39738;SDS011;25422;48.286;8.484;2022-09-09T10:27:32;4.25;;;0.50;;
39738;SDS011;25422;48.286;8.484;2022-09-09T10:30:15;4.75;;;0.82;;
39738;SDS011;25422;48.286;8.484;2022-09-09T10:32:54;2.58;;;0.90;;
39738;SDS011;25422;48.286;8.484;2022-09-09T10:35:35;1.77;;;0.60;;
39738;SDS011;25422;48.286;8.484;2022-09-09T10:38:13;2.63;;;0.70;;
39738;SDS011;25422;48.286;8.484;2022-09-09T10:46:21;1.63;;;0.43;;
39738;SDS011;25422;48.286;8.484;2022-09-09T10:59:53;2.70;;;0.70;;
39738;SDS011;25422;48.286;8.484;2022-09-09T11:02:28;2.53;;;0.65;;
39738;SDS011;25422;48.286;8.484;2022-09-09T11:05:01;3.22;;;0.73;;
39738;SDS011;25422;48.286;8.484;2022-09-09T11:10:14;3.38;;;0.82;;
39738;SDS011;25422;48.286;8.484;2022-09-09T11:12:49;2.75;;;0.95;;
39738;SDS011;25422;48.286;8.484;2022-09-09T11:15:20;2.50;;;0.70;;
39738;SDS011;25422;48.286;8.484;2022-09-09T11:17:55;3.22;;;0.90;;
39738;SDS011;25422;48.286;8.484;2022-09-09T11:20:23;2.60;;;0.90;;
39738;SDS011;25422;48.286;8.484;2022-09-09T11:22:52;3.25;;;0.95;;
39738;SDS011;25422;48.286;8.484;2022-09-09T11:41:05;7.47;;;1.42;;
39738;SDS011;25422;48.286;8.484;2022-09-09T11:43:41;4.20;;;0.93;;
39738;SDS011;25422;48.286;8.484;2022-09-09T11:46:10;8.35;;;1.77;;
39738;SDS011;25422;48.286;8.484;2022-09-09T11:48:39;4.90;;;1.20;;
39738;SDS011;25422;48.286;8.484;2022-09-09T11:53:49;4.03;;;1.40;;
39738;SDS011;25422;48.286;8.484;2022-09-09T11:56:30;2.58;;;0.88;;
39738;SDS011;25422;48.286;8.484;2022-09-09T11:59:06;5.03;;;1.03;;
39738;SDS011;25422;48.286;8.484;2022-09-09T12:01:44;2.10;;;0.65;;
39738;SDS011;25422;48.286;8.484;2022-09-09T12:04:26;3.17;;;0.90;;
39738;SDS011;25422;48.286;8.484;2022-09-09T12:07:00;3.97;;;0.65;;
39738;SDS011;25422;48.286;8.484;2022-09-09T12:12:28;2.13;;;0.55;;
39738;SDS011;25422;48.286;8.484;2022-09-09T12:17:37;4.88;;;0.80;;
39738;SDS011;25422;48.286;8.484;2022-09-09T12:22:47;2.35;;;0.50;;
39738;SDS011;25422;48.286;8.484;2022-09-09T12:28:04;3.45;;;0.95;;
39738;SDS011;25422;48.286;8.484;2022-09-09T12:30:57;7.03;;;0.95;;
39738;SDS011;25422;48.286;8.484;2022-09-09T12:33:42;2.57;;;0.60;;
39738;SDS011;25422;48.286;8.484;2022-09-09T12:36:14;4.47;;;1.00;;
39738;SDS011;25422;48.286;8.484;2022-09-09T12:38:44;4.05;;;0.57;;
39738;SDS011;25422;48.286;8.484;2022-09-09T12:41:24;1.55;;;0.70;;
39738;SDS011;25422;48.286;8.484;2022-09-09T12:44:06;2.63;;;0.70;;
39738;SDS011;25422;48.286;8.484;2022-09-09T12:52:04;1.35;;;0.40;;
39738;SDS011;25422;48.286;8.484;2022-09-09T12:54:43;2.92;;;0.60;;
39738;SDS011;25422;48.286;8.484;2022-09-09T12:57:11;4.03;;;0.63;;
39738;SDS011;25422;48.286;8.484;2022-09-09T12:59:39;1.80;;;0.52;;
39738;SDS011;25422;48.286;8.484;2022-09-09T13:02:23;2.63;;;0.57;;
39738;SDS011;25422;48.286;8.484;2022-09-09T13:04:50;2.13;;;0.60;;
39738;SDS011;25422;48.286;8.484;2022-09-09T13:07:18;3.10;;;0.80;;
39738;SDS011;25422;48.286;8.484;2022-09-09T13:09:45;3.45;;;0.80;;
39738;SDS011;25422;48.286;8.484;2022-09-09T13:12:16;2.20;;;0.50;;
39738;SDS011;25422;48.286;8.484;2022-09-09T13:14:45;1.55;;;0.52;;
39738;SDS011;25422;48.286;8.484;2022-09-09T13:20:48;3.78;;;0.55;;
39738;SDS011;25422;48.286;8.484;2022-09-09T13:23:16;4.80;;;0.70;;
39738;SDS011;25422;48.286;8.484;2022-09-09T13:25:58;2.92;;;0.60;;
39738;SDS011;25422;48.286;8.484;2022-09-09T13:28:26;6.03;;;0.80;;
39738;SDS011;25422;48.286;8.484;2022-09-09T13:31:00;4.43;;;1.10;;
39738;SDS011;25422;48.286;8.484;2022-09-09T13:33:31;3.08;;;0.50;;
39738;SDS011;25422;48.286;8.484;2022-09-09T13:36:03;3.22;;;0.52;;
39738;SDS011;25422;48.286;8.484;2022-09-09T13:38:35;4.00;;;0.60;;
39738;SDS011;25422;48.286;8.484;2022-09-09T13:41:04;6.25;;;0.73;;
39738;SDS011;25422;48.286;8.484;2022-09-09T13:43:36;4.35;;;0.77;;
39738;SDS011;25422;48.286;8.484;2022-09-09T13:46:03;4.30;;;0.93;;
39738;SDS011;25422;48.286;8.484;2022-09-09T13:48:31;1.73;;;0.60;;
39738;SDS011;25422;48.286;8.484;2022-09-09T13:51:03;1.98;;;0.45;;
39738;SDS011;25422;48.286;8.484;2022-09-09T13:53:32;3.08;;;0.50;;
39738;SDS011;25422;48.286;8.484;2022-09-09T13:55:58;5.22;;;0.82;;
39738;SDS011;25422;48.286;8.484;2022-09-09T13:58:24;5.68;;;0.93;;
39738;SDS011;25422;48.286;8.484;2022-09-09T14:00:51;2.45;;;0.60;;
39738;SDS011;25422;48.286;8.484;2022-09-09T14:03:18;3.92;;;0.73;;
39738;SDS011;25422;48.286;8.484;2022-09-09T14:05:44;4.28;;;0.70;;
39738;SDS011;25422;48.286;8.484;2022-09-09T14:08:14;5.53;;;0.82;;
39738;SDS011;25422;48.286;8.484;2022-09-09T14:10:48;4.90;;;0.65;;
39738;SDS011;25422;48.286;8.484;2022-09-09T14:13:13;1.77;;;0.60;;
39738;SDS011;25422;48.286;8.484;2022-09-09T14:15:39;3.83;;;0.73;;
39738;SDS011;25422;48.286;8.484;2022-09-09T14:18:05;2.70;;;0.55;;
39738;SDS011;25422;48.286;8.484;2022-09-09T14:20:30;4.00;;;0.70;;
39738;SDS011;25422;48.286;8.484;2022-09-09T14:22:56;2.35;;;0.60;;
39738;SDS011;25422;48.286;8.484;2022-09-09T14:25:23;2.58;;;1.00;;
39738;SDS011;25422;48.286;8.484;2022-09-09T14:27:48;3.58;;;0.77;;
39738;SDS011;25422;48.286;8.484;2022-09-09T14:30:16;2.47;;;0.60;;
39738;SDS011;25422;48.286;8.484;2022-09-09T14:32:41;1.05;;;0.40;;
39738;SDS011;25422;48.286;8.484;2022-09-09T14:35:07;2.33;;;0.75;;
39738;SDS011;25422;48.286;8.484;2022-09-09T14:37:33;2.67;;;0.68;;
39738;SDS011;25422;48.286;8.484;2022-09-09T14:39:58;1.05;;;0.40;;
39738;SDS011;25422;48.286;8.484;2022-09-09T14:42:24;2.22;;;0.75;;
39738;SDS011;25422;48.286;8.484;2022-09-09T14:44:49;4.20;;;0.70;;
39738;SDS011;25422;48.286;8.484;2022-09-09T14:47:15;2.58;;;0.70;;
39738;SDS011;25422;48.286;8.484;2022-09-09T14:49:40;1.90;;;0.60;;
39738;SDS011;25422;48.286;8.484;2022-09-09T14:52:06;3.67;;;0.90;;
39738;SDS011;25422;48.286;8.484;2022-09-09T14:54:32;3.03;;;0.85;;
39738;SDS011;25422;48.286;8.484;2022-09-09T14:56:57;2.22;;;0.65;;
39738;SDS011;25422;48.286;8.484;2022-09-09T14:59:23;1.77;;;0.50;;
39738;SDS011;25422;48.286;8.484;2022-09-09T15:01:49;4.10;;;0.60;;
39738;SDS011;25422;48.286;8.484;2022-09-09T15:04:15;2.03;;;0.70;;
39738;SDS011;25422;48.286;8.484;2022-09-09T15:06:41;2.13;;;0.60;;
39738;SDS011;25422;48.286;8.484;2022-09-09T15:09:09;2.78;;;0.80;;
39738;SDS011;25422;48.286;8.484;2022-09-09T15:11:35;4.32;;;0.77;;
39738;SDS011;25422;48.286;8.484;2022-09-09T15:14:03;2.60;;;0.70;;
39738;SDS011;25422;48.286;8.484;2022-09-09T15:16:33;2.05;;;0.93;;
39738;SDS011;25422;48.286;8.484;2022-09-09T15:18:59;3.25;;;0.50;;
39738;SDS011;25422;48.286;8.484;2022-09-09T15:21:26;3.00;;;0.50;;
39738;SDS011;25422;48.286;8.484;2022-09-09T15:23:54;1.65;;;0.50;;
39738;SDS011;25422;48.286;8.484;2022-09-09T15:26:21;4.50;;;0.73;;
39738;SDS011;25422;48.286;8.484;2022-09-09T15:28:47;4.35;;;0.70;;
39738;SDS011;25422;48.286;8.484;2022-09-09T15:31:18;5.68;;;0.70;;
39738;SDS011;25422;48.286;8.484;2022-09-09T15:33:49;2.03;;;0.70;;
39738;SDS011;25422;48.286;8.484;2022-09-09T15:36:16;1.95;;;0.70;;
39738;SDS011;25422;48.286;8.484;2022-09-09T15:38:48;3.90;;;0.73;;
39738;SDS011;25422;48.286;8.484;2022-09-09T15:41:14;2.80;;;0.70;;
39738;SDS011;25422;48.286;8.484;2022-09-09T15:43:47;2.58;;;0.73;;
39738;SDS011;25422;48.286;8.484;2022-09-09T15:51:34;2.55;;;0.60;;
39738;SDS011;25422;48.286;8.484;2022-09-09T15:54:00;3.72;;;0.82;;
39738;SDS011;25422;48.286;8.484;2022-09-09T15:56:27;1.67;;;0.70;;
39738;SDS011;25422;48.286;8.484;2022-09-09T15:58:55;2.33;;;0.70;;
39738;SDS011;25422;48.286;8.484;2022-09-09T16:01:22;2.67;;;0.82;;
39738;SDS011;25422;48.286;8.484;2022-09-09T16:03:48;2.40;;;0.55;;
39738;SDS011;25422;48.286;8.484;2022-09-09T16:06:19;2.22;;;0.60;;
39738;SDS011;25422;48.286;8.484;2022-09-09T16:08:49;3.05;;;0.60;;
39738;SDS011;25422;48.286;8.484;2022-09-09T16:11:25;1.70;;;0.57;;
39738;SDS011;25422;48.286;8.484;2022-09-09T16:13:56;3.40;;;0.50;;
39738;SDS011;25422;48.286;8.484;2022-09-09T16:16:23;2.90;;;0.47;;
39738;SDS011;25422;48.286;8.484;2022-09-09T16:18:50;2.28;;;0.50;;
39738;SDS011;25422;48.286;8.484;2022-09-09T16:21:19;1.35;;;0.55;;
39738;SDS011;25422;48.286;8.484;2022-09-09T16:23:50;2.00;;;0.55;;
39738;SDS011;25422;48.286;8.484;2022-09-09T16:26:18;2.03;;;0.57;;
39738;SDS011;25422;48.286;8.484;2022-09-09T16:28:44;4.40;;;0.80;;
39738;SDS011;25422;48.286;8.484;2022-09-09T16:31:16;4.85;;;0.75;;
39738;SDS011;25422;48.286;8.484;2022-09-09T16:33:45;1.20;;;0.50;;
39738;SDS011;25422;48.286;8.484;2022-09-09T16:36:15;3.08;;;0.65;;
39738;SDS011;25422;48.286;8.484;2022-09-09T16:38:43;5.40;;;0.65;;
39738;SDS011;25422;48.286;8.484;2022-09-09T16:41:09;2.47;;;0.60;;
39738;SDS011;25422;48.286;8.484;2022-09-09T16:43:36;3.47;;;0.73;;
39738;SDS011;25422;48.286;8.484;2022-09-09T16:46:02;2.92;;;0.70;;
39738;SDS011;25422;48.286;8.484;2022-09-09T16:48:36;3.28;;;1.02;;
39738;SDS011;25422;48.286;8.484;2022-09-09T16:51:05;2.08;;;0.80;;
39738;SDS011;25422;48.286;8.484;2022-09-09T16:53:34;2.78;;;0.60;;
39738;SDS011;25422;48.286;8.484;2022-09-09T16:56:07;4.13;;;1.13;;
39738;SDS011;25422;48.286;8.484;2022-09-09T16:58:33;3.60;;;0.80;;
39738;SDS011;25422;48.286;8.484;2022-09-09T17:00:59;3.03;;;0.98;;
39738;SDS011;25422;48.286;8.484;2022-09-09T17:03:26;3.13;;;0.85;;
39738;SDS011;25422;48.286;8.484;2022-09-09T17:05:52;3.33;;;1.00;;
39738;SDS011;25422;48.286;8.484;2022-09-09T17:08:17;4.78;;;0.93;;
39738;SDS011;25422;48.286;8.484;2022-09-09T17:10:43;4.00;;;1.10;;
39738;SDS011;25422;48.286;8.484;2022-09-09T17:13:09;3.30;;;0.80;;
39738;SDS011;25422;48.286;8.484;2022-09-09T17:15:38;4.10;;;0.88;;
39738;SDS011;25422;48.286;8.484;2022-09-09T17:18:06;2.05;;;0.80;;
39738;SDS011;25422;48.286;8.484;2022-09-09T17:20:34;2.10;;;0.90;;
39738;SDS011;25422;48.286;8.484;2022-09-09T17:23:01;3.97;;;0.70;;
39738;SDS011;25422;48.286;8.484;2022-09-09T17:25:26;1.52;;;0.45;;
39738;SDS011;25422;48.286;8.484;2022-09-09T17:27:51;1.80;;;0.80;;
39738;SDS011;25422;48.286;8.484;2022-09-09T17:30:17;2.47;;;0.60;;
39738;SDS011;25422;48.286;8.484;2022-09-09T17:32:43;2.35;;;0.80;;